createdAt,value
2023-03-05T00:00:07.769Z,60.43
2023-03-05T00:03:19.920Z,60.14
2023-03-05T00:06:30.336Z,59.90
2023-03-05T00:09:36.958Z,59.54
2023-03-05T00:12:42.819Z,60.19
2023-03-05T00:15:52.332Z,59.63
2023-03-05T00:19:01.062Z,59.68
2023-03-05T00:22:08.637Z,60.64
2023-03-05T00:25:14.677Z,59.07
2023-03-05T00:28:21.711Z,59.47
2023-03-05T00:31:34.220Z,59.16
2023-03-05T00:34:41.311Z,58.54
2023-03-05T00:37:47.158Z,59.14
2023-03-05T00:40:54.753Z,59.25
2023-03-05T00:44:00.507Z,58.98
2023-03-05T00:47:10.140Z,58.83
2023-03-05T00:50:16.033Z,58.11
2023-03-05T00:53:23.010Z,58.11
2023-03-05T00:56:31.067Z,58.29
2023-03-05T00:59:37.652Z,59.53
2023-03-05T01:02:46.457Z,58.92
2023-03-05T01:05:56.130Z,58.86
2023-03-05T01:09:02.110Z,58.65
2023-03-05T01:12:09.893Z,58.78
2023-03-05T01:15:15.803Z,58.82
2023-03-05T01:18:25.575Z,59.27
2023-03-05T01:21:31.400Z,59.03
2023-03-05T01:24:38.010Z,58.62
2023-03-05T01:27:44.156Z,59.08
2023-03-05T01:30:50.870Z,59.10
2023-03-05T01:34:00.424Z,58.84
2023-03-05T01:37:07.680Z,59.17
2023-03-05T01:40:17.151Z,58.09
2023-03-05T01:43:30.826Z,57.69
2023-03-05T01:46:39.517Z,57.27
2023-03-05T01:49:49.705Z,57.70
2023-03-05T01:53:03.275Z,57.13
2023-03-05T01:56:10.629Z,57.05
2023-03-05T01:59:19.674Z,57.24
2023-03-05T02:02:27.630Z,57.50
2023-03-05T02:05:39.289Z,57.21
2023-03-05T02:08:46.007Z,57.23
2023-03-05T02:11:52.147Z,57.13
2023-03-05T02:14:59.609Z,56.92
2023-03-05T02:18:06.036Z,56.75
2023-03-05T02:21:15.716Z,56.69
2023-03-05T02:24:37.674Z,56.98
2023-03-05T02:27:47.884Z,56.25
2023-03-05T02:30:54.250Z,56.79
2023-03-05T02:34:00.979Z,57.04
2023-03-05T02:37:10.822Z,56.66
2023-03-05T02:40:19.793Z,56.58
2023-03-05T02:43:25.726Z,56.85
2023-03-05T02:46:33.158Z,56.81
2023-03-05T02:49:39.260Z,55.97
2023-03-05T02:52:48.545Z,56.25
2023-03-05T02:55:56.761Z,56.45
2023-03-05T02:59:03.887Z,56.21
2023-03-05T03:02:10.717Z,56.29
2023-03-05T03:05:16.585Z,56.43
2023-03-05T03:08:28.095Z,56.27
2023-03-05T03:11:34.341Z,56.43
2023-03-05T03:14:44.867Z,56.04
2023-03-05T03:17:50.942Z,56.27
2023-03-05T03:20:58.146Z,56.45
2023-03-05T03:24:07.467Z,56.71
2023-03-05T03:27:14.771Z,56.95
2023-03-05T03:30:21.058Z,56.39
2023-03-05T03:33:27.871Z,55.85
2023-03-05T03:36:33.809Z,56.05
2023-03-05T03:39:43.225Z,56.30
2023-03-05T03:42:49.199Z,56.33
2023-03-05T03:45:56.164Z,56.09
2023-03-05T03:49:02.009Z,55.80
2023-03-05T03:52:10.035Z,56.21
2023-03-05T03:55:18.474Z,56.16
2023-03-05T03:58:25.018Z,56.08
2023-03-05T04:01:30.847Z,55.95
2023-03-05T04:04:37.559Z,55.69
2023-03-05T04:07:45.594Z,56.06
2023-03-05T04:10:54.828Z,55.92
2023-03-05T04:14:00.890Z,56.21
2023-03-05T04:17:07.590Z,56.22
2023-03-05T04:20:19.214Z,56.25
2023-03-05T04:23:28.294Z,56.32
2023-03-05T04:26:36.886Z,55.08
2023-03-05T04:29:43.584Z,55.40
2023-03-05T04:32:49.287Z,54.37
2023-03-05T04:35:56.115Z,53.69
2023-03-05T04:39:02.054Z,53.46
2023-03-05T04:42:11.486Z,53.85
2023-03-05T04:45:17.627Z,53.28
2023-03-05T04:48:27.662Z,53.21
2023-03-05T04:51:33.559Z,51.99
2023-03-05T04:54:40.190Z,51.81
2023-03-05T04:57:48.820Z,51.02
2023-03-05T05:00:55.495Z,51.01
2023-03-05T05:04:01.358Z,50.67
2023-03-05T05:07:10.483Z,50.58
2023-03-05T05:10:17.920Z,50.91
2023-03-05T05:13:27.195Z,51.39
2023-03-05T05:16:33.384Z,52.50
2023-03-05T05:19:40.044Z,52.46
2023-03-05T05:22:46.233Z,52.62
2023-03-05T05:26:01.562Z,53.78
2023-03-05T05:29:12.130Z,54.09
2023-03-05T05:32:19.154Z,54.17
2023-03-05T05:35:25.088Z,54.15
2023-03-05T05:38:31.877Z,53.28
2023-03-05T05:41:37.738Z,53.65
2023-03-05T05:44:48.835Z,53.15
2023-03-05T05:47:54.611Z,52.95
2023-03-05T05:51:01.940Z,53.26
2023-03-05T05:54:08.192Z,53.39
2023-03-05T05:57:14.885Z,53.23
2023-03-05T06:00:27.042Z,51.93
2023-03-05T06:03:33.932Z,51.60
2023-03-05T06:06:39.740Z,51.96
2023-03-05T06:09:46.592Z,51.69
2023-03-05T06:12:52.313Z,52.56
2023-03-05T06:16:04.560Z,53.18
2023-03-05T06:19:17.436Z,53.52
2023-03-05T06:22:24.182Z,53.91
2023-03-05T06:25:30.079Z,54.44
2023-03-05T06:28:38.553Z,54.65
2023-03-05T06:31:47.309Z,55.06
2023-03-05T06:34:54.093Z,55.25
2023-03-05T06:37:59.964Z,55.59
2023-03-05T06:41:12.160Z,55.52
2023-03-05T06:44:18.264Z,55.44
2023-03-05T06:47:27.530Z,55.66
2023-03-05T06:50:33.551Z,55.53
2023-03-05T06:53:40.151Z,55.68
2023-03-05T06:56:49.215Z,56.33
2023-03-05T06:59:55.802Z,56.47
2023-03-05T07:03:04.259Z,56.12
2023-03-05T07:06:13.213Z,56.05
2023-03-05T07:09:20.136Z,55.95
2023-03-05T07:12:26.793Z,55.39
2023-03-05T07:15:32.582Z,55.40
2023-03-05T07:18:41.909Z,55.67
2023-03-05T07:21:47.655Z,55.50
2023-03-05T07:24:54.204Z,55.52
2023-03-05T07:28:00.643Z,55.64
2023-03-05T07:31:11.673Z,55.29
2023-03-05T07:34:20.145Z,55.46
2023-03-05T07:37:26.718Z,55.64
2023-03-05T07:40:32.472Z,55.60
2023-03-05T07:43:39.716Z,56.09
2023-03-05T07:46:46.509Z,56.84
2023-03-05T07:49:55.911Z,56.63
2023-03-05T07:53:01.777Z,56.65
2023-03-05T07:56:10.292Z,56.71
2023-03-05T07:59:16.740Z,56.70
2023-03-05T08:02:23.397Z,56.95
2023-03-05T08:05:31.826Z,56.50
2023-03-05T08:08:39.115Z,56.64
2023-03-05T08:11:45.304Z,56.97
2023-03-05T08:14:52.188Z,56.50
2023-03-05T08:17:57.893Z,56.48
2023-03-05T08:21:07.911Z,55.97
2023-03-05T08:24:16.044Z,55.94
2023-03-05T08:27:22.631Z,55.15
2023-03-05T08:30:28.660Z,54.82
2023-03-05T08:33:35.506Z,54.22
2023-03-05T08:36:43.870Z,54.28
2023-03-05T08:39:50.485Z,54.23
2023-03-05T08:42:56.335Z,54.52
2023-03-05T08:46:05.249Z,54.66
2023-03-05T08:49:11.460Z,55.03
2023-03-05T08:52:20.632Z,54.75
2023-03-05T08:55:26.510Z,54.85
2023-03-05T08:58:33.375Z,55.84
2023-03-05T09:01:39.392Z,55.65
2023-03-05T09:04:46.080Z,55.96
2023-03-05T09:07:54.576Z,55.44
2023-03-05T09:11:01.474Z,56.31
2023-03-05T09:14:07.633Z,55.88
2023-03-05T09:17:14.238Z,55.47
2023-03-05T09:20:20.585Z,56.64
2023-03-05T09:23:29.888Z,56.31
2023-03-05T09:26:35.945Z,57.00
2023-03-05T09:29:43.259Z,57.88
2023-03-05T09:32:51.177Z,58.90
2023-03-05T09:35:58.254Z,58.58
2023-03-05T09:39:10.504Z,59.34
2023-03-05T09:43:05.198Z,59.75
2023-03-05T09:46:36.259Z,61.53
2023-03-05T09:50:01.310Z,60.67
2023-03-05T09:53:22.862Z,61.41
2023-03-05T09:56:39.499Z,62.26
2023-03-05T09:59:56.336Z,62.78
2023-03-05T10:03:14.080Z,62.42
2023-03-05T10:06:27.998Z,61.10
2023-03-05T10:09:52.612Z,60.55
2023-03-05T10:13:14.715Z,61.81
2023-03-05T10:17:06.170Z,62.48
2023-03-05T10:20:37.265Z,62.34
2023-03-05T10:24:19.675Z,62.45
2023-03-05T10:27:45.929Z,62.26
2023-03-05T10:31:25.067Z,62.51
2023-03-05T10:34:57.682Z,61.13
2023-03-05T10:38:57.165Z,62.53
2023-03-05T10:42:17.888Z,62.24
2023-03-05T10:45:32.467Z,62.26
2023-03-05T10:48:52.775Z,62.06
2023-03-05T10:52:10.115Z,60.56
2023-03-05T10:55:19.544Z,59.39
2023-03-05T10:58:28.335Z,58.36
2023-03-05T11:01:34.647Z,58.81
2023-03-05T11:04:45.044Z,57.76
2023-03-05T11:07:50.865Z,57.11
2023-03-05T11:11:18.563Z,56.37
2023-03-05T11:14:36.353Z,56.70
2023-03-05T11:17:48.015Z,55.65
2023-03-05T11:21:13.951Z,55.34
2023-03-05T11:24:22.709Z,56.78
2023-03-05T11:27:39.738Z,54.36
2023-03-05T11:30:57.133Z,54.10
2023-03-05T11:34:08.165Z,53.62
2023-03-05T11:37:28.667Z,53.65
2023-03-05T11:40:37.884Z,53.99
2023-03-05T11:43:47.753Z,53.36
2023-03-05T11:47:00.241Z,53.03
2023-03-05T11:50:26.424Z,53.20
2023-03-05T11:53:39.597Z,52.88
2023-03-05T11:56:49.585Z,52.90
2023-03-05T12:00:02.084Z,52.19
2023-03-05T12:03:19.326Z,52.94
2023-03-05T12:06:40.956Z,52.19
2023-03-05T12:09:55.871Z,51.48
2023-03-05T12:13:18.147Z,51.93
2023-03-05T12:16:44.019Z,50.79
2023-03-05T12:20:08.053Z,48.19
2023-03-05T12:23:20.801Z,47.15
2023-03-05T12:27:00.184Z,46.48
2023-03-05T12:30:09.003Z,44.39
2023-03-05T12:33:39.455Z,39.52
2023-03-05T12:36:46.467Z,38.42
2023-03-05T12:40:04.510Z,36.68
2023-03-05T12:43:36.291Z,36.32
2023-03-05T12:46:43.879Z,35.89
2023-03-05T12:49:51.542Z,35.17
2023-03-05T12:52:59.169Z,34.77
2023-03-05T12:56:20.100Z,35.71
2023-03-05T12:59:41.784Z,34.39
2023-03-05T13:02:55.941Z,36.75
2023-03-05T13:06:05.743Z,36.64
2023-03-05T13:09:21.959Z,36.81
2023-03-05T13:12:32.741Z,37.54
2023-03-05T13:15:42.720Z,39.18
2023-03-05T13:18:52.729Z,41.36
2023-03-05T13:22:05.339Z,42.09
2023-03-05T13:25:20.710Z,42.64
2023-03-05T13:28:28.298Z,42.81
2023-03-05T13:31:39.580Z,43.24
2023-03-05T13:34:49.933Z,42.60
2023-03-05T13:37:55.945Z,42.92
2023-03-05T13:41:22.671Z,43.55
2023-03-05T13:44:29.725Z,42.75
2023-03-05T13:47:39.874Z,42.35
2023-03-05T13:50:45.691Z,42.72
2023-03-05T13:53:53.256Z,41.94
2023-03-05T13:57:02.451Z,42.19
2023-03-05T14:00:29.879Z,42.84
2023-03-05T14:03:38.377Z,43.52
2023-03-05T14:06:51.381Z,43.77
2023-03-05T14:09:57.638Z,43.77
2023-03-05T14:13:09.351Z,44.19
2023-03-05T14:16:26.332Z,44.85
2023-03-05T14:19:44.455Z,44.99
2023-03-05T14:22:51.695Z,45.28
2023-03-05T14:26:30.701Z,45.50
2023-03-05T14:29:37.621Z,45.31
2023-03-05T14:32:49.044Z,45.47
2023-03-05T14:35:59.768Z,46.22
2023-03-05T14:39:06.410Z,45.31
2023-03-05T14:42:38.989Z,45.89
2023-03-05T14:45:48.098Z,45.37
2023-03-05T14:48:54.522Z,45.48
2023-03-05T14:52:03.776Z,46.01
2023-03-05T14:55:13.653Z,45.73
2023-03-05T14:58:26.190Z,46.32
2023-03-05T15:01:32.113Z,45.53
2023-03-05T15:04:40.701Z,45.57
2023-03-05T15:07:51.454Z,47.17
2023-03-05T15:10:59.245Z,49.41
2023-03-05T15:14:05.070Z,49.14
2023-03-05T15:17:21.589Z,49.02
2023-03-05T15:20:32.326Z,48.97
2023-03-05T15:23:41.562Z,48.42
2023-03-05T15:26:49.283Z,48.39
2023-03-05T15:29:56.880Z,48.19
2023-03-05T15:33:06.591Z,47.90
2023-03-05T15:36:13.787Z,47.97
2023-03-05T15:39:24.788Z,48.54
2023-03-05T15:42:31.467Z,48.63
2023-03-05T15:45:37.385Z,48.81
2023-03-05T15:48:50.054Z,49.00
2023-03-05T15:51:57.053Z,50.26
2023-03-05T15:55:07.905Z,52.17
2023-03-05T15:58:19.270Z,54.22
2023-03-05T16:01:26.331Z,55.60
2023-03-05T16:04:32.911Z,54.68
2023-03-05T16:07:48.615Z,53.62
2023-03-05T16:10:57.746Z,53.52
2023-03-05T16:14:11.311Z,53.18
2023-03-05T16:17:18.990Z,53.76
2023-03-05T16:20:26.688Z,53.54
2023-03-05T16:23:33.661Z,53.74
2023-03-05T16:26:44.433Z,54.11
2023-03-05T16:29:51.272Z,54.41
2023-03-05T16:32:58.078Z,54.45
2023-03-05T16:36:27.300Z,54.36
2023-03-05T16:39:34.279Z,54.85
2023-03-05T16:42:43.650Z,55.04
2023-03-05T16:45:50.408Z,54.67
2023-03-05T16:48:56.650Z,54.62
2023-03-05T16:52:17.759Z,54.38
2023-03-05T16:55:24.356Z,54.75
2023-03-05T16:58:34.233Z,55.11
2023-03-05T17:01:40.075Z,55.55
2023-03-05T17:04:47.205Z,55.50
2023-03-05T17:07:54.714Z,57.96
2023-03-05T17:11:02.176Z,57.49
2023-03-05T17:14:10.661Z,57.99
2023-03-05T17:17:17.960Z,58.14
2023-03-05T17:20:23.774Z,58.30
2023-03-05T17:23:31.418Z,58.80
2023-03-05T17:26:38.437Z,59.07
2023-03-05T17:29:47.720Z,59.39
2023-03-05T17:32:58.306Z,59.46
2023-03-05T17:36:05.733Z,59.87
2023-03-05T17:39:12.497Z,60.33
2023-03-05T17:42:20.656Z,59.93
2023-03-05T17:45:30.041Z,59.61
2023-03-05T17:48:39.576Z,59.93
2023-03-05T17:51:45.684Z,60.50
2023-03-05T17:54:53.281Z,60.51
2023-03-05T17:57:59.972Z,60.29
2023-03-05T18:01:10.728Z,60.20
2023-03-05T18:04:17.331Z,60.28
2023-03-05T18:07:24.041Z,59.90
2023-03-05T18:10:31.232Z,60.03
2023-03-05T18:13:38.524Z,59.90
2023-03-05T18:16:50.990Z,59.62
2023-03-05T18:20:00.236Z,59.04
2023-03-05T18:23:09.703Z,58.70
2023-03-05T18:26:18.929Z,58.42
2023-03-05T18:29:25.900Z,57.91
2023-03-05T18:32:39.624Z,57.85
2023-03-05T18:35:45.535Z,57.99
2023-03-05T18:38:54.729Z,58.05
2023-03-05T18:42:00.738Z,57.98
2023-03-05T18:45:11.104Z,58.46
2023-03-05T18:48:19.713Z,59.51
2023-03-05T18:51:29.414Z,58.05
2023-03-05T18:54:35.423Z,58.06
2023-03-05T18:57:42.312Z,58.30
2023-03-05T19:00:49.522Z,58.01
2023-03-05T19:03:59.104Z,58.42
2023-03-05T19:07:05.453Z,58.32
2023-03-05T19:10:15.148Z,58.19
2023-03-05T19:13:43.861Z,58.21
2023-03-05T19:16:50.418Z,57.71
2023-03-05T19:20:00.917Z,57.90
2023-03-05T19:23:17.944Z,58.42
2023-03-05T19:26:23.749Z,58.29
2023-03-05T19:29:34.538Z,58.06
2023-03-05T19:32:40.808Z,58.34
2023-03-05T19:35:50.132Z,58.64
2023-03-05T19:38:56.068Z,58.28
2023-03-05T19:42:03.584Z,59.28
2023-03-05T19:45:14.118Z,59.21
2023-03-05T19:48:20.751Z,59.10
2023-03-05T19:51:31.256Z,58.71
2023-03-05T19:54:38.395Z,59.20
2023-03-05T19:57:44.393Z,58.66
2023-03-05T20:00:51.271Z,58.28
2023-03-05T20:04:00.363Z,59.74
2023-03-05T20:07:10.619Z,59.82
2023-03-05T20:10:19.784Z,59.98
2023-03-05T20:13:28.104Z,60.00
2023-03-05T20:16:39.247Z,59.74
2023-03-05T20:19:45.873Z,59.03
2023-03-05T20:22:54.648Z,59.33
2023-03-05T20:26:02.425Z,59.06
2023-03-05T20:29:08.788Z,59.67
2023-03-05T20:32:15.524Z,58.90
2023-03-05T20:35:22.046Z,59.14
2023-03-05T20:38:33.162Z,59.07
2023-03-05T20:41:42.221Z,58.26
2023-03-05T20:44:49.037Z,57.63
2023-03-05T20:47:54.923Z,57.95
2023-03-05T20:51:13.096Z,58.35
2023-03-05T20:54:24.128Z,58.08
2023-03-05T20:57:31.071Z,58.12
2023-03-05T21:00:37.289Z,58.17
2023-03-05T21:03:44.350Z,58.20
2023-03-05T21:06:55.479Z,57.04
2023-03-05T21:10:04.965Z,58.28
2023-03-05T21:13:10.928Z,58.15
2023-03-05T21:16:21.422Z,58.43
2023-03-05T21:19:27.275Z,58.92
2023-03-05T21:22:33.879Z,58.96
2023-03-05T21:25:42.306Z,58.74
2023-03-05T21:28:48.980Z,59.13
2023-03-05T21:31:55.156Z,58.58
2023-03-05T21:35:01.824Z,58.07
2023-03-05T21:38:09.975Z,57.60
2023-03-05T21:41:20.686Z,57.50
2023-03-05T21:44:26.583Z,56.89
2023-03-05T21:47:33.161Z,57.81
2023-03-05T21:50:43.465Z,58.22
2023-03-05T21:53:50.276Z,57.90
2023-03-05T21:56:58.795Z,58.37
2023-03-05T22:00:08.413Z,58.61
2023-03-05T22:03:17.652Z,58.53
2023-03-05T22:06:25.277Z,58.77
2023-03-05T22:09:31.092Z,58.04
2023-03-05T22:13:17.955Z,57.90
2023-03-05T22:16:25.883Z,58.45
2023-03-05T22:19:33.103Z,58.30
2023-03-05T22:22:38.963Z,58.54
2023-03-05T22:25:46.855Z,58.96
2023-03-05T22:28:56.003Z,59.12
2023-03-05T22:32:02.644Z,59.01
2023-03-05T22:35:15.498Z,58.07
2023-03-05T22:38:22.623Z,58.83
2023-03-05T22:41:28.532Z,59.13
2023-03-05T22:44:37.860Z,59.09
2023-03-05T22:47:43.952Z,58.46
2023-03-05T22:50:59.272Z,57.91
2023-03-05T22:54:05.305Z,58.35
2023-03-05T22:57:12.298Z,58.11
2023-03-05T23:00:24.399Z,58.37
2023-03-05T23:03:31.215Z,58.95
2023-03-05T23:06:37.152Z,59.47
2023-03-05T23:09:44.148Z,59.37
2023-03-05T23:12:53.633Z,59.48
2023-03-05T23:16:02.834Z,60.29
2023-03-05T23:19:08.675Z,59.50
2023-03-05T23:22:17.228Z,60.12
2023-03-05T23:25:23.793Z,58.82
2023-03-05T23:28:30.554Z,58.66
2023-03-05T23:31:38.982Z,58.23
2023-03-05T23:34:45.749Z,57.29
2023-03-05T23:37:52.688Z,57.19
2023-03-05T23:41:03.741Z,56.64
2023-03-05T23:44:09.680Z,56.74
2023-03-05T23:47:18.942Z,57.56
2023-03-05T23:50:28.637Z,57.37
2023-03-05T23:53:35.159Z,57.81
2023-03-05T23:56:41.159Z,57.54
2023-03-05T23:59:47.766Z,57.90
